Time;durP1;ratioP1;P1;durP2;ratioP2;P2;SDS_P1;SDS_P2;PMS_P1;PMS_P2;Temp;Humidity;BMP_temperature;BMP_pressure;BME280_temperature;BME280_humidity;BME280_pressure;Samples;Min_cycle;Max_cycle;Signal;HPM_P1;HPM_P2
2023/06/01 00:01:12;;;;;;;3.70;0.93;;;13.80;99.90;;;;;;7403587;19;20329;-79
2023/06/01 00:03:41;;;;;;;2.47;0.90;;;13.70;99.90;;;;;;7402109;19;19950;-79
2023/06/01 00:06:10;;;;;;;2.60;0.75;;;13.80;99.90;;;;;;7403410;19;19929;-79
2023/06/01 00:08:39;;;;;;;2.05;0.90;;;13.70;99.90;;;;;;7401983;19;19919;-79
2023/06/01 00:11:08;;;;;;;2.33;0.80;;;13.70;99.90;;;;;;7404313;19;19946;-78
2023/06/01 00:13:37;;;;;;;2.17;0.80;;;13.70;99.90;;;;;;7408619;19;19986;-79
2023/06/01 00:16:10;;;;;;;1.83;0.75;;;13.80;99.90;;;;;;7410473;19;20358;-79
2023/06/01 00:18:39;;;;;;;1.75;0.77;;;13.80;99.90;;;;;;7391528;19;19938;-78
2023/06/01 00:21:08;;;;;;;1.17;0.80;;;13.70;99.90;;;;;;7407239;19;19942;-79
2023/06/01 00:23:40;;;;;;;1.48;0.75;;;13.70;99.90;;;;;;7408914;19;19933;-78
2023/06/01 00:26:10;;;;;;;2.42;0.77;;;13.60;99.90;;;;;;7409215;19;19934;-78
2023/06/01 00:28:39;;;;;;;1.92;0.70;;;13.60;99.90;;;;;;7406945;19;19943;-79
2023/06/01 00:31:11;;;;;;;3.00;0.80;;;13.50;99.90;;;;;;7404736;19;19919;-78
2023/06/01 00:33:40;;;;;;;2.10;0.80;;;13.50;99.90;;;;;;7407501;19;19918;-78
2023/06/01 00:36:09;;;;;;;1.35;0.73;;;13.50;99.90;;;;;;7407144;19;19918;-78
2023/06/01 00:38:38;;;;;;;1.77;0.73;;;12.50;99.90;;;;;;7405063;19;20001;-78
2023/06/01 00:41:07;;;;;;;1.35;0.70;;;13.40;99.90;;;;;;7407778;19;19977;-78
2023/06/01 00:43:36;;;;;;;2.88;0.80;;;13.30;99.90;;;;;;7407426;19;19931;-78
2023/06/01 00:46:05;;;;;;;1.73;0.75;;;13.30;99.90;;;;;;7406711;19;20026;-78
2023/06/01 00:48:37;;;;;;;0.88;0.60;;;13.30;99.90;;;;;;7406049;19;19922;-78
2023/06/01 00:51:08;;;;;;;2.53;0.90;;;13.10;99.90;;;;;;7405947;19;19919;-78
2023/06/01 00:53:37;;;;;;;2.38;0.80;;;13.30;99.90;;;;;;7406954;19;19934;-78
2023/06/01 00:56:07;;;;;;;1.63;0.60;;;13.20;99.90;;;;;;7405895;19;19925;-78
2023/06/01 00:58:36;;;;;;;2.03;0.80;;;13.10;99.90;;;;;;7403668;19;19939;-77
2023/06/01 01:01:05;;;;;;;1.52;0.60;;;13.20;99.90;;;;;;7405866;19;19943;-78
2023/06/01 01:03:38;;;;;;;1.02;0.60;;;13.10;99.90;;;;;;7406208;19;20782;-78
2023/06/01 01:06:14;;;;;;;1.00;0.60;;;13.10;99.90;;;;;;7405693;19;20238;-78
2023/06/01 01:08:49;;;;;;;1.13;0.70;;;13.30;99.90;;;;;;7406634;19;19938;-78
2023/06/01 01:11:24;;;;;;;2.03;0.90;;;13.10;99.90;;;;;;7405447;19;20027;-78
2023/06/01 01:14:01;;;;;;;1.67;0.50;;;13.20;99.90;;;;;;7406629;19;19918;-77
2023/06/01 01:16:33;;;;;;;1.30;0.90;;;13.20;99.90;;;;;;7405489;19;19919;-78
2023/06/01 01:19:21;;;;;;;2.50;0.80;;;13.10;99.90;;;;;;7404112;19;19922;-78
2023/06/01 01:22:00;;;;;;;1.73;0.70;;;12.80;99.90;;;;;;7404472;19;20400;-79
2023/06/01 01:24:45;;;;;;;1.10;0.43;;;12.90;99.90;;;;;;7405105;19;19981;-78
2023/06/01 01:27:27;;;;;;;1.50;0.63;;;13.00;99.90;;;;;;7407791;19;19946;-77
2023/06/01 01:30:05;;;;;;;0.80;0.50;;;13.00;99.90;;;;;;7405742;19;19944;-78
2023/06/01 01:32:35;;;;;;;0.82;0.50;;;13.00;99.90;;;;;;7406731;19;19927;-79
2023/06/01 01:35:06;;;;;;;1.20;0.60;;;12.90;99.90;;;;;;7406424;19;19922;-79
2023/06/01 01:37:35;;;;;;;0.75;0.50;;;13.20;99.90;;;;;;7402919;19;19928;-79
2023/06/01 01:40:05;;;;;;;0.90;0.70;;;12.80;99.90;;;;;;7406094;19;20387;-79
2023/06/01 01:42:34;;;;;;;1.38;0.70;;;12.90;99.90;;;;;;7403267;19;19922;-78
2023/06/01 01:45:06;;;;;;;1.33;0.60;;;12.70;99.90;;;;;;7406440;19;19947;-78
2023/06/01 01:47:44;;;;;;;1.77;0.52;;;12.80;99.90;;;;;;7402664;19;19922;-79
2023/06/01 01:50:15;;;;;;;1.13;0.60;;;12.90;99.90;;;;;;7405071;19;19993;-79
2023/06/01 01:52:46;;;;;;;1.92;0.60;;;12.70;99.90;;;;;;7405272;19;19939;-78
2023/06/01 01:55:18;;;;;;;1.08;0.65;;;12.80;99.90;;;;;;7401381;19;19974;-79
2023/06/01 01:57:47;;;;;;;0.82;0.50;;;12.80;99.90;;;;;;7404177;19;20302;-77
2023/06/01 02:00:20;;;;;;;1.27;0.60;;;12.60;99.90;;;;;;7404530;19;19923;-78
2023/06/01 02:02:49;;;;;;;1.17;0.40;;;12.80;99.90;;;;;;7404165;19;20343;-78
2023/06/01 02:05:18;;;;;;;1.13;0.40;;;12.90;99.90;;;;;;7406641;19;19919;-78
2023/06/01 02:07:47;;;;;;;0.82;0.63;;;12.70;99.90;;;;;;7405524;19;19922;-78
2023/06/01 02:10:16;;;;;;;0.82;0.50;;;12.80;99.90;;;;;;7403964;19;19923;-78
2023/06/01 02:12:45;;;;;;;0.57;0.40;;;12.80;99.90;;;;;;7404027;19;19948;-78
2023/06/01 02:15:15;;;;;;;0.63;0.43;;;12.90;99.90;;;;;;7405520;19;20258;-78
2023/06/01 02:17:46;;;;;;;0.70;0.40;;;12.80;99.90;;;;;;7403896;19;20353;-78
2023/06/01 02:20:16;;;;;;;1.23;0.40;;;12.60;99.90;;;;;;7399885;19;20306;-77
2023/06/01 02:22:45;;;;;;;2.50;0.70;;;12.80;99.90;;;;;;7404363;19;19918;-77
2023/06/01 02:25:14;;;;;;;0.90;0.50;;;12.80;99.90;;;;;;7404870;19;19933;-78
2023/06/01 02:27:43;;;;;;;1.17;0.50;;;12.80;99.90;;;;;;7404383;19;19952;-78
2023/06/01 02:30:13;;;;;;;2.15;0.40;;;12.70;99.90;;;;;;7404205;19;20271;-78
2023/06/01 02:32:44;;;;;;;1.85;0.70;;;12.90;99.90;;;;;;7405139;19;19923;-78
2023/06/01 02:35:16;;;;;;;0.95;0.60;;;12.90;99.90;;;;;;7406174;19;19918;-78
2023/06/01 02:37:45;;;;;;;1.38;0.65;;;12.60;99.90;;;;;;7408124;19;19926;-78
2023/06/01 02:40:14;;;;;;;1.92;0.65;;;12.80;99.90;;;;;;7405960;19;19947;-77
2023/06/01 02:42:43;;;;;;;2.08;0.60;;;12.60;99.90;;;;;;7404354;19;19918;-78
2023/06/01 02:45:12;;;;;;;0.63;0.47;;;12.60;99.90;;;;;;7403502;19;19926;-78
2023/06/01 02:47:42;;;;;;;1.77;0.70;;;12.60;99.90;;;;;;7403414;19;19918;-78
2023/06/01 02:50:11;;;;;;;3.20;0.63;;;12.50;99.90;;;;;;7401091;19;20286;-78
2023/06/01 02:52:43;;;;;;;2.10;0.60;;;12.40;99.90;;;;;;7401050;19;20365;-77
2023/06/01 02:55:13;;;;;;;2.70;0.88;;;12.60;99.90;;;;;;7400462;19;19915;-78
2023/06/01 02:57:42;;;;;;;1.20;0.50;;;12.50;99.90;;;;;;7401070;19;20420;-78
2023/06/01 03:00:15;;;;;;;1.52;0.70;;;12.60;99.90;;;;;;7403137;19;19918;-78
2023/06/01 03:02:45;;;;;;;1.65;0.68;;;12.60;99.90;;;;;;7398434;19;20276;-78
2023/06/01 03:05:16;;;;;;;1.00;0.60;;;12.60;99.90;;;;;;7402648;19;19918;-78
2023/06/01 03:07:48;;;;;;;2.53;0.73;;;12.50;99.90;;;;;;7403245;19;20341;-78
2023/06/01 03:10:17;;;;;;;1.77;0.60;;;12.60;99.90;;;;;;7403713;19;20278;-78
2023/06/01 03:12:46;;;;;;;2.17;0.55;;;12.40;99.90;;;;;;7404328;19;20360;-78
2023/06/01 03:15:15;;;;;;;1.67;0.57;;;12.50;99.90;;;;;;7403211;19;19926;-79
2023/06/01 03:17:44;;;;;;;2.40;0.77;;;12.50;99.90;;;;;;7403802;19;19922;-79
2023/06/01 03:20:17;;;;;;;1.67;1.08;;;12.50;99.90;;;;;;7403062;19;20002;-79
2023/06/01 03:22:49;;;;;;;1.67;0.80;;;12.60;99.90;;;;;;7400503;19;19922;-78
2023/06/01 03:25:18;;;;;;;0.80;0.60;;;12.50;99.90;;;;;;7402284;19;19918;-79
2023/06/01 03:27:47;;;;;;;1.60;0.90;;;12.50;99.90;;;;;;7400716;19;19926;-79
2023/06/01 03:30:16;;;;;;;1.65;0.75;;;12.40;99.90;;;;;;7401574;19;19994;-78
2023/06/01 03:32:46;;;;;;;1.15;0.70;;;12.30;99.90;;;;;;7400881;19;19932;-77
2023/06/01 03:35:16;;;;;;;1.45;0.40;;;12.50;99.90;;;;;;7400403;19;19918;-79
2023/06/01 03:37:48;;;;;;;0.90;0.60;;;12.30;99.90;;;;;;7397210;19;19996;-78
2023/06/01 03:40:16;;;;;;;;;;;12.30;99.90;;;;;;7400364;19;20414;-78
2023/06/01 03:42:47;;;;;;;2.58;0.70;;;12.30;99.90;;;;;;7401519;19;19931;-77
2023/06/01 03:45:17;;;;;;;0.68;0.50;;;12.20;99.90;;;;;;7401204;19;20007;-78
2023/06/01 03:47:46;;;;;;;1.95;0.70;;;12.20;99.90;;;;;;7399973;19;19943;-79
2023/06/01 03:50:15;;;;;;;0.73;0.50;;;12.20;99.90;;;;;;7399939;19;19918;-78
2023/06/01 03:52:44;;;;;;;1.55;0.60;;;12.10;99.90;;;;;;7401496;19;19942;-78
2023/06/01 03:55:17;;;;;;;0.95;0.50;;;12.10;99.90;;;;;;7400353;19;19970;-78
2023/06/01 03:57:46;;;;;;;1.92;0.80;;;12.30;99.90;;;;;;7397827;19;19986;-79
2023/06/01 04:00:22;;;;;;;0.88;0.40;;;12.20;99.90;;;;;;7399552;19;19922;-78
2023/06/01 04:02:54;;;;;;;0.80;0.50;;;12.30;99.90;;;;;;7401771;19;19922;-78
2023/06/01 04:05:23;;;;;;;;;;;12.30;99.90;;;;;;7404402;19;19930;-79
2023/06/01 04:07:53;;;;;;;;;;;12.20;99.90;;;;;;7400981;19;20347;-77
2023/06/01 04:10:25;;;;;;;1.15;0.85;;;12.30;99.90;;;;;;7400449;19;19922;-78
2023/06/01 04:12:54;;;;;;;;;;;12.30;99.90;;;;;;7401417;19;20343;-77
2023/06/01 04:15:25;;;;;;;1.58;0.65;;;12.20;99.90;;;;;;7399494;19;20380;-78
2023/06/01 04:17:54;;;;;;;1.13;1.00;;;12.20;99.90;;;;;;7400791;19;19922;-78
2023/06/01 04:20:23;;;;;;;1.67;0.60;;;12.10;99.90;;;;;;7395666;19;19915;-77
2023/06/01 04:22:52;;;;;;;1.35;0.60;;;12.10;99.90;;;;;;7399935;19;20361;-78
2023/06/01 04:25:21;;;;;;;2.60;0.60;;;12.10;99.90;;;;;;7400111;19;20019;-79
2023/06/01 04:27:54;;;;;;;1.40;0.68;;;12.20;99.90;;;;;;7400889;19;19962;-79
2023/06/01 04:30:23;;;;;;;2.28;0.73;;;12.20;99.90;;;;;;7399158;19;19918;-78
2023/06/01 04:32:53;;;;;;;0.75;0.50;;;12.20;99.90;;;;;;7400930;19;20303;-79
2023/06/01 04:35:22;;;;;;;1.20;0.50;;;12.20;99.90;;;;;;7401441;19;19915;-78
2023/06/01 04:37:51;;;;;;;1.38;0.70;;;12.20;99.90;;;;;;7400749;19;19956;-78
2023/06/01 04:40:20;;;;;;;0.60;0.47;;;12.10;99.90;;;;;;7398508;19;19978;-77
2023/06/01 04:42:55;;;;;;;1.20;0.38;;;12.10;99.90;;;;;;7399965;19;19929;-78
2023/06/01 04:45:25;;;;;;;0.88;0.50;;;12.20;99.90;;;;;;7399732;19;19932;-78
2023/06/01 04:47:57;;;;;;;1.10;0.60;;;12.00;99.90;;;;;;7401543;19;20377;-78
2023/06/01 04:50:28;;;;;;;0.75;0.40;;;12.20;99.90;;;;;;7400571;19;19921;-78
2023/06/01 04:52:57;;;;;;;;;;;12.00;99.90;;;;;;7407608;19;20337;-78
2023/06/01 04:55:27;;;;;;;0.60;0.50;;;12.10;99.90;;;;;;7404469;19;19946;-78
2023/06/01 04:58:00;;;;;;;1.67;0.60;;;12.20;99.90;;;;;;7403845;19;19949;-77
2023/06/01 05:00:29;;;;;;;1.88;0.68;;;12.20;99.90;;;;;;7409819;19;19930;-77
2023/06/01 05:02:58;;;;;;;1.40;0.60;;;12.20;99.90;;;;;;7408464;19;20404;-78
2023/06/01 05:05:27;;;;;;;1.75;0.40;;;12.30;99.90;;;;;;7409216;19;19942;-79
2023/06/01 05:07:56;;;;;;;1.20;0.40;;;12.20;99.90;;;;;;7404560;19;19922;-78
2023/06/01 05:10:26;;;;;;;0.80;0.60;;;12.20;99.90;;;;;;7407176;19;19915;-78
2023/06/01 05:12:55;;;;;;;0.32;0.30;;;12.20;99.90;;;;;;7404666;19;19956;-78
2023/06/01 05:15:28;;;;;;;0.82;0.40;;;12.20;99.90;;;;;;7405416;19;19964;-77
2023/06/01 05:17:56;;;;;;;1.10;0.45;;;12.20;99.90;;;;;;7399514;19;20340;-78
2023/06/01 05:20:26;;;;;;;0.50;0.30;;;12.10;99.90;;;;;;7397674;19;19922;-77
2023/06/01 05:22:55;;;;;;;2.65;0.52;;;12.10;99.90;;;;;;7402957;19;19977;-77
2023/06/01 05:25:24;;;;;;;1.08;0.28;;;12.20;99.90;;;;;;7405201;19;19929;-77
2023/06/01 05:27:53;;;;;;;1.02;0.47;;;12.20;99.90;;;;;;7401870;19;19946;-78
2023/06/01 05:30:22;;;;;;;1.25;0.60;;;12.20;99.90;;;;;;7404178;19;19938;-77
2023/06/01 05:32:54;;;;;;;0.85;0.40;;;12.30;99.90;;;;;;7403684;19;19922;-78
2023/06/01 05:35:23;;;;;;;0.95;0.50;;;12.30;99.90;;;;;;7403357;19;19999;-78
2023/06/01 05:37:52;;;;;;;1.00;0.60;;;12.30;99.90;;;;;;7403695;19;20282;-77
2023/06/01 05:40:21;;;;;;;1.58;0.70;;;12.20;99.90;;;;;;7403127;19;19958;-78
2023/06/01 05:42:51;;;;;;;1.50;0.63;;;12.30;99.90;;;;;;7399112;19;19922;-77
2023/06/01 05:45:20;;;;;;;2.45;0.63;;;12.20;99.90;;;;;;7404128;19;19970;-77
2023/06/01 05:47:49;;;;;;;1.73;0.82;;;12.10;99.90;;;;;;7404631;19;19982;-77
2023/06/01 05:50:20;;;;;;;0.90;0.65;;;12.10;99.90;;;;;;7404697;19;19934;-77
2023/06/01 05:52:49;;;;;;;1.02;0.82;;;12.20;99.90;;;;;;7403118;19;19990;-78
2023/06/01 05:55:18;;;;;;;0.68;0.60;;;11.90;99.90;;;;;;7403214;19;19919;-77
2023/06/01 05:57:48;;;;;;;1.77;1.00;;;12.10;99.90;;;;;;7404599;19;19943;-77
2023/06/01 06:00:19;;;;;;;1.00;0.50;;;12.00;99.90;;;;;;7401498;19;19943;-76
2023/06/01 06:02:48;;;;;;;1.52;0.52;;;12.00;99.90;;;;;;7401924;19;19927;-75
2023/06/01 06:05:20;;;;;;;1.30;0.47;;;12.20;99.90;;;;;;7402361;19;20346;-75
2023/06/01 06:07:49;;;;;;;0.80;0.60;;;12.10;99.90;;;;;;7401707;19;19930;-76
2023/06/01 06:10:18;;;;;;;0.40;0.40;;;12.10;99.90;;;;;;7403077;19;20033;-77
2023/06/01 06:12:47;;;;;;;1.15;0.50;;;12.20;99.90;;;;;;7402136;19;19938;-76
2023/06/01 06:15:16;;;;;;;0.77;0.40;;;12.20;99.90;;;;;;7398482;19;19939;-76
2023/06/01 06:17:45;;;;;;;0.30;0.30;;;12.30;99.90;;;;;;7402115;19;20257;-78
2023/06/01 06:20:15;;;;;;;0.55;0.20;;;14.20;99.90;;;;;;7397649;19;19968;-78
2023/06/01 06:22:47;;;;;;;0.20;0.20;;;12.30;99.90;;;;;;7395076;19;19956;-75
2023/06/01 06:25:16;;;;;;;0.50;0.30;;;12.40;99.90;;;;;;7400537;19;20571;-76
2023/06/01 06:27:45;;;;;;;2.42;0.47;;;12.30;99.90;;;;;;7398204;19;20622;-76
2023/06/01 06:30:15;;;;;;;1.02;0.50;;;12.20;99.90;;;;;;7401423;19;21302;-76
2023/06/01 06:32:44;;;;;;;0.30;0.20;;;12.20;99.90;;;;;;7401371;19;19927;-76
2023/06/01 06:35:14;;;;;;;1.10;0.60;;;12.00;99.90;;;;;;7402359;19;19926;-76
2023/06/01 06:37:43;;;;;;;0.40;0.30;;;12.10;99.90;;;;;;7401397;19;19933;-76
2023/06/01 06:40:17;;;;;;;0.55;0.50;;;12.00;99.90;;;;;;7400639;19;19928;-75
2023/06/01 06:42:49;;;;;;;0.75;0.40;;;12.20;99.90;;;;;;7400286;19;19923;-76
2023/06/01 06:45:18;;;;;;;0.95;0.30;;;12.10;99.90;;;;;;7400141;19;20321;-76
2023/06/01 06:47:47;;;;;;;0.20;0.20;;;12.10;99.90;;;;;;7401109;19;19952;-76
2023/06/01 06:50:17;;;;;;;0.50;0.40;;;12.00;99.90;;;;;;7400223;19;19922;-76
2023/06/01 06:52:46;;;;;;;1.13;0.22;;;12.00;99.90;;;;;;7401550;19;20290;-75
2023/06/01 06:55:17;;;;;;;0.20;0.20;;;11.90;99.90;;;;;;7399618;19;19939;-77
2023/06/01 06:57:46;;;;;;;0.30;0.30;;;11.90;99.90;;;;;;7401445;19;19957;-76
2023/06/01 07:00:18;;;;;;;0.47;0.20;;;11.80;99.90;;;;;;7401167;19;19926;-76
2023/06/01 07:02:47;;;;;;;0.63;0.20;;;11.80;99.90;;;;;;7401147;19;20329;-76
2023/06/01 07:05:16;;;;;;;1.13;0.20;;;11.90;99.90;;;;;;7400409;19;19970;-76
2023/06/01 07:07:46;;;;;;;0.52;0.30;;;11.80;99.90;;;;;;7401245;19;19943;-76
2023/06/01 07:10:18;;;;;;;0.75;0.30;;;12.10;99.90;;;;;;7399857;19;19921;-75
2023/06/01 07:12:47;;;;;;;0.20;0.20;;;12.10;99.90;;;;;;7401603;19;19928;-76
2023/06/01 07:15:16;;;;;;;0.40;0.20;;;12.20;99.90;;;;;;7399247;19;19933;-76
2023/06/01 07:17:45;;;;;;;0.28;0.20;;;12.10;99.90;;;;;;7396834;19;19960;-76
2023/06/01 07:20:15;;;;;;;0.95;0.43;;;12.10;99.90;;;;;;7397629;19;20078;-76
2023/06/01 07:22:44;;;;;;;0.85;0.30;;;12.30;99.90;;;;;;7398708;19;19922;-75
2023/06/01 07:25:13;;;;;;;0.55;0.28;;;12.20;99.90;;;;;;7400454;19;19922;-76
2023/06/01 07:27:45;;;;;;;0.25;0.13;;;12.20;99.90;;;;;;7398533;19;19982;-76
2023/06/01 07:30:15;;;;;;;0.20;0.20;;;12.00;99.90;;;;;;7395531;19;20352;-76
2023/06/01 07:32:45;;;;;;;0.40;0.20;;;12.10;99.90;;;;;;7397422;19;19943;-76
2023/06/01 07:35:14;;;;;;;1.42;0.40;;;11.90;99.90;;;;;;7398024;19;19922;-76
2023/06/01 07:37:43;;;;;;;0.80;0.50;;;12.10;99.90;;;;;;7400443;19;19952;-76
2023/06/01 07:40:13;;;;;;;0.40;0.40;;;12.00;99.90;;;;;;7401178;19;19978;-76
2023/06/01 07:42:45;;;;;;;0.80;0.60;;;12.00;99.90;;;;;;7400996;19;19923;-76
2023/06/01 07:45:14;;;;;;;0.40;0.40;;;12.00;99.90;;;;;;7399603;19;19974;-75
2023/06/01 07:47:43;;;;;;;1.15;0.50;;;11.90;99.90;;;;;;7400042;19;19922;-76
2023/06/01 07:50:12;;;;;;;1.15;0.70;;;12.00;99.90;;;;;;7397986;19;20346;-76
2023/06/01 07:52:41;;;;;;;0.70;0.63;;;11.90;99.90;;;;;;7399687;19;19919;-75
2023/06/01 07:55:12;;;;;;;0.85;0.80;;;12.00;99.90;;;;;;7397736;19;19922;-76
2023/06/01 07:57:41;;;;;;;1.15;0.60;;;11.90;99.90;;;;;;7400632;19;19934;-76
2023/06/01 08:00:17;;;;;;;2.05;0.80;;;12.10;99.90;;;;;;7396670;19;19951;-76
2023/06/01 08:02:47;;;;;;;1.00;0.57;;;12.10;99.90;;;;;;7400028;19;19922;-76
2023/06/01 08:05:18;;;;;;;1.35;0.70;;;12.10;99.90;;;;;;7397831;19;19926;-76
2023/06/01 08:07:48;;;;;;;1.08;0.60;;;12.10;99.90;;;;;;7399733;19;19943;-76
2023/06/01 08:10:18;;;;;;;1.48;0.60;;;12.20;99.90;;;;;;7400225;19;19927;-75
2023/06/01 08:12:47;;;;;;;1.23;0.60;;;12.10;99.90;;;;;;7400019;19;19922;-76
2023/06/01 08:15:20;;;;;;;2.20;0.50;;;12.10;99.90;;;;;;7399251;19;19918;-75
2023/06/01 08:17:49;;;;;;;2.08;0.40;;;12.00;99.90;;;;;;7396370;19;19959;-76
2023/06/01 08:20:21;;;;;;;0.98;0.93;;;12.10;99.90;;;;;;7399433;19;19963;-76
2023/06/01 08:22:50;;;;;;;3.08;0.68;;;12.10;99.90;;;;;;7397859;19;19918;-76
2023/06/01 08:25:20;;;;;;;1.63;0.73;;;12.20;99.90;;;;;;7398352;19;19984;-76
2023/06/01 08:27:49;;;;;;;1.38;0.65;;;12.10;99.90;;;;;;7396240;19;19926;-76
2023/06/01 08:30:22;;;;;;;3.33;1.00;;;12.20;99.90;;;;;;7399255;19;19919;-76
2023/06/01 08:32:51;;;;;;;;;;;12.10;99.90;;;;;;7400094;19;19923;-76
2023/06/01 08:35:21;;;;;;;0.80;0.50;;;12.20;99.90;;;;;;7405897;19;19923;-76
2023/06/01 08:37:50;;;;;;;1.38;0.77;;;12.00;99.90;;;;;;7403781;19;20234;-76
2023/06/01 08:40:19;;;;;;;1.38;0.80;;;12.20;99.90;;;;;;7404930;19;20331;-76
2023/06/01 08:42:57;;;;;;;2.45;0.60;;;12.20;99.90;;;;;;7392563;19;19959;-72
2023/06/01 08:45:31;;;;;;;2.35;0.60;;;12.20;99.90;;;;;;7405738;19;19926;-72
2023/06/01 08:48:01;;;;;;;2.28;0.77;;;12.20;99.90;;;;;;7408175;19;19928;-72
2023/06/01 08:50:31;;;;;;;2.63;0.63;;;12.20;99.90;;;;;;7403972;19;19921;-72
2023/06/01 08:53:02;;;;;;;1.35;0.50;;;12.20;99.90;;;;;;7404324;19;20331;-71
2023/06/01 08:55:31;;;;;;;2.50;0.60;;;12.30;99.90;;;;;;7403919;19;19933;-71
2023/06/01 08:58:00;;;;;;;0.68;0.68;;;12.20;99.90;;;;;;7404207;19;19974;-73
2023/06/01 09:00:33;;;;;;;0.82;0.40;;;12.10;99.90;;;;;;7399977;19;19926;-71
2023/06/01 09:03:03;;;;;;;0.43;0.40;;;12.40;99.90;;;;;;7404961;19;19919;-71
2023/06/01 09:05:32;;;;;;;1.10;0.95;;;12.10;99.90;;;;;;7405121;19;19926;-71
2023/06/01 09:08:01;;;;;;;1.13;0.50;;;12.40;99.90;;;;;;7406252;19;19993;-70
2023/06/01 09:10:30;;;;;;;0.98;0.50;;;12.40;99.90;;;;;;7404313;19;19922;-70
2023/06/01 09:13:00;;;;;;;1.67;0.60;;;12.40;99.90;;;;;;7404707;19;20309;-70
2023/06/01 09:15:32;;;;;;;0.85;0.50;;;12.60;99.90;;;;;;7404872;19;19927;-71
2023/06/01 09:18:10;;;;;;;;;;;11.80;99.90;;;;;;7406935;19;20492;-71
2023/06/01 09:20:40;;;;;;;1.00;0.50;;;12.50;99.90;;;;;;7403390;19;20274;-71
2023/06/01 09:23:10;;;;;;;1.90;0.70;;;12.50;99.90;;;;;;7405985;19;20336;-71
2023/06/01 09:25:39;;;;;;;1.10;0.60;;;12.50;99.90;;;;;;7402272;19;20395;-71
2023/06/01 09:28:07;;;;;;;1.08;0.50;;;12.60;99.90;;;;;;7404642;19;19940;-71
2023/06/01 09:30:45;;;;;;;0.70;0.60;;;12.60;99.90;;;;;;7403061;19;19933;-72
2023/06/01 09:33:15;;;;;;;1.60;0.68;;;12.70;99.90;;;;;;7402120;19;19947;-71
2023/06/01 09:35:46;;;;;;;1.20;0.60;;;12.80;99.90;;;;;;7404700;19;19930;-71
2023/06/01 09:38:22;;;;;;;1.63;0.60;;;12.70;99.90;;;;;;7403496;19;19918;-72
2023/06/01 09:40:59;;;;;;;0.93;0.50;;;12.80;99.90;;;;;;7400305;19;19939;-71
2023/06/01 09:43:28;;;;;;;2.08;0.82;;;12.60;99.90;;;;;;7399418;19;19923;-71
2023/06/01 09:46:11;;;;;;;1.95;0.70;;;12.60;99.90;;;;;;7401732;19;20269;-71
2023/06/01 09:48:42;;;;;;;1.50;0.60;;;12.80;99.90;;;;;;7401217;19;20357;-71
2023/06/01 09:51:29;;;;;;;1.40;0.60;;;12.80;99.90;;;;;;7403782;19;19914;-71
2023/06/01 09:53:57;;;;;;;2.20;0.60;;;12.80;99.90;;;;;;7404604;19;19927;-71
2023/06/01 09:56:26;;;;;;;0.90;0.40;;;12.70;99.90;;;;;;7403298;19;19983;-71
2023/06/01 09:59:01;;;;;;;1.67;0.50;;;12.70;99.90;;;;;;7403811;19;19927;-71
2023/06/01 10:01:34;;;;;;;1.25;0.47;;;13.00;99.90;;;;;;7400712;19;20326;-71
2023/06/01 10:04:05;;;;;;;2.20;1.20;;;13.10;99.90;;;;;;7404251;19;19922;-71
2023/06/01 10:06:38;;;;;;;2.45;0.52;;;12.90;99.90;;;;;;7358808;19;20325;-76
2023/06/01 10:09:12;;;;;;;2.67;0.82;;;13.20;99.90;;;;;;7375927;19;20603;-76
2023/06/01 10:11:42;;;;;;;1.23;0.50;;;13.00;99.90;;;;;;7368705;19;19927;-76
2023/06/01 10:14:13;;;;;;;2.95;0.70;;;12.90;99.90;;;;;;7374755;19;19990;-78
2023/06/01 10:16:44;;;;;;;1.70;0.65;;;12.80;99.90;;;;;;7376994;19;20006;-72
2023/06/01 10:19:14;;;;;;;;;;;12.80;99.90;;;;;;7376056;19;19926;-71
2023/06/01 10:21:45;;;;;;;2.30;0.60;;;12.80;99.90;;;;;;7370673;19;19929;-71
2023/06/01 10:24:15;;;;;;;3.13;1.13;;;13.00;99.90;;;;;;7370492;19;19942;-71
2023/06/01 10:26:53;;;;;;;3.38;0.85;;;12.80;99.90;;;;;;7374409;19;19930;-71
2023/06/01 10:29:23;;;;;;;2.38;0.80;;;12.80;99.90;;;;;;7373952;19;20835;-71
2023/06/01 10:31:55;;;;;;;1.05;0.50;;;12.90;99.90;;;;;;7376043;19;19911;-71
2023/06/01 10:34:40;;;;;;;2.17;0.77;;;12.90;99.90;;;;;;7373714;19;19922;-71
2023/06/01 10:37:19;;;;;;;2.33;0.75;;;13.00;99.90;;;;;;7377496;19;19918;-71
2023/06/01 10:39:48;;;;;;;2.42;0.50;;;13.20;99.90;;;;;;7375676;19;19943;-72
2023/06/01 10:42:40;;;;;;;1.95;0.70;;;13.50;99.90;;;;;;7370272;19;19943;-71
2023/06/01 10:45:11;;;;;;;2.13;1.00;;;13.60;99.90;;;;;;7375897;19;20276;-71
2023/06/01 10:47:52;;;;;;;1.33;0.60;;;13.60;99.90;;;;;;7375488;19;19942;-72
2023/06/01 10:50:21;;;;;;;2.00;0.60;;;13.50;99.90;;;;;;7371356;19;19986;-72
2023/06/01 10:52:53;;;;;;;1.20;0.65;;;13.30;99.90;;;;;;7371616;19;19922;-72
2023/06/01 10:55:27;;;;;;;0.57;0.40;;;13.50;99.90;;;;;;7383103;19;19930;-80
2023/06/01 10:58:25;;;;;;;1.48;0.60;;;13.60;99.90;;;;;;7402376;19;19923;-81
2023/06/01 11:00:58;;;;;;;1.40;0.50;;;13.60;99.90;;;;;;7404577;19;19974;-81
2023/06/01 11:03:49;;;;;;;1.95;0.45;;;13.70;99.90;;;;;;7401881;19;19923;-79
2023/06/01 11:06:29;;;;;;;1.60;0.65;;;13.80;99.90;;;;;;7402005;19;19989;-79
2023/06/01 11:09:00;;;;;;;2.47;0.85;;;13.80;99.90;;;;;;7401043;19;19918;-81
2023/06/01 11:12:00;;;;;;;2.22;0.77;;;13.80;99.90;;;;;;7401770;19;19933;-81
2023/06/01 11:14:30;;;;;;;;;;;13.80;99.90;;;;;;7406319;19;19918;-80
2023/06/01 11:17:30;;;;;;;1.60;0.77;;;13.00;99.90;;;;;;7405129;19;20273;-79
2023/06/01 11:20:11;;;;;;;1.88;0.80;;;13.80;99.90;;;;;;7402064;19;19926;-79
2023/06/01 11:22:40;;;;;;;1.52;0.47;;;13.80;99.90;;;;;;7400634;19;20565;-79
2023/06/01 11:25:11;;;;;;;2.28;0.80;;;13.70;99.90;;;;;;7404315;19;19922;-80
2023/06/01 11:27:46;;;;;;;1.65;0.40;;;13.90;99.90;;;;;;7397962;19;20018;-74
2023/06/01 11:30:21;;;;;;;1.75;0.52;;;15.20;99.90;;;;;;7395131;19;19922;-74
2023/06/01 11:32:54;;;;;;;1.05;0.40;;;13.80;99.90;;;;;;7400113;19;19918;-74
2023/06/01 11:35:26;;;;;;;0.85;0.50;;;13.70;99.90;;;;;;7401885;19;19934;-74
2023/06/01 11:37:57;;;;;;;1.98;0.50;;;13.70;99.90;;;;;;7401754;19;20061;-74
2023/06/01 11:40:27;;;;;;;0.68;0.30;;;13.70;99.90;;;;;;7401469;19;19922;-74
2023/06/01 11:42:56;;;;;;;2.20;0.55;;;13.80;99.90;;;;;;7396976;19;19919;-74
2023/06/01 11:45:26;;;;;;;1.42;0.32;;;13.80;99.90;;;;;;7402486;19;19927;-74
2023/06/01 11:47:55;;;;;;;0.75;0.40;;;13.80;99.90;;;;;;7402253;19;19939;-73
2023/06/01 11:50:27;;;;;;;1.08;0.30;;;13.70;99.90;;;;;;7401971;19;19992;-74
2023/06/01 11:52:58;;;;;;;2.03;0.30;;;13.60;99.90;;;;;;7401036;19;20356;-73
2023/06/01 11:55:27;;;;;;;0.55;0.30;;;13.60;99.90;;;;;;7401454;19;20329;-74
2023/06/01 11:57:58;;;;;;;1.63;0.50;;;13.50;99.90;;;;;;7399219;19;19924;-73
2023/06/01 12:00:27;;;;;;;1.08;0.47;;;13.40;99.90;;;;;;7400265;19;19930;-74
2023/06/01 12:03:09;;;;;;;1.10;0.50;;;13.50;99.90;;;;;;7398564;19;19922;-74
2023/06/01 12:05:48;;;;;;;0.80;0.32;;;13.40;99.90;;;;;;7399845;19;20037;-73
2023/06/01 12:08:17;;;;;;;2.40;0.57;;;13.50;99.90;;;;;;7405618;19;19940;-73
2023/06/01 12:10:47;;;;;;;1.98;0.50;;;13.50;99.90;;;;;;7403709;19;20462;-74
2023/06/01 12:13:17;;;;;;;1.13;0.47;;;13.70;99.90;;;;;;7407403;19;19922;-73
2023/06/01 12:15:46;;;;;;;1.08;0.50;;;13.70;99.90;;;;;;7406991;19;19918;-73
2023/06/01 12:18:16;;;;;;;2.63;0.70;;;13.60;99.90;;;;;;7407934;19;19923;-73
2023/06/01 12:20:47;;;;;;;1.52;0.80;;;13.70;99.90;;;;;;7409044;19;19941;-73
2023/06/01 12:23:19;;;;;;;1.95;0.75;;;13.70;99.90;;;;;;7405690;19;19939;-74
2023/06/01 12:25:52;;;;;;;;;;;13.60;99.90;;;;;;7410263;19;19929;-74
2023/06/01 12:28:22;;;;;;;1.15;0.50;;;13.50;99.90;;;;;;7405184;19;20145;-74
2023/06/01 12:30:51;;;;;;;1.33;0.50;;;13.40;99.90;;;;;;7404685;19;19922;-73
2023/06/01 12:33:34;;;;;;;2.22;0.60;;;13.40;99.90;;;;;;7403460;19;20397;-73
2023/06/01 12:36:08;;;;;;;2.08;0.80;;;11.30;99.90;;;;;;7406474;19;20305;-74
2023/06/01 12:38:51;;;;;;;1.95;0.60;;;13.50;99.90;;;;;;7405568;19;19919;-74
2023/06/01 12:41:21;;;;;;;;;;;13.50;99.90;;;;;;7405873;19;19919;-74
2023/06/01 12:43:50;;;;;;;1.23;0.60;;;13.40;99.90;;;;;;7404013;19;19917;-74
2023/06/01 12:46:23;;;;;;;2.22;1.08;;;13.70;99.90;;;;;;7404276;19;19915;-74
2023/06/01 12:48:53;;;;;;;1.05;0.50;;;13.60;99.90;;;;;;7404728;19;22875;-74
2023/06/01 12:51:24;;;;;;;2.38;0.80;;;13.70;99.90;;;;;;7404656;19;20339;-73
2023/06/01 12:53:53;;;;;;;0.65;0.52;;;13.70;99.90;;;;;;7405119;19;19922;-73
2023/06/01 12:56:22;;;;;;;1.02;0.60;;;13.50;99.90;;;;;;7404894;19;19923;-73
2023/06/01 12:58:51;;;;;;;1.55;0.60;;;13.70;99.90;;;;;;7403371;19;20015;-73
2023/06/01 13:01:20;;;;;;;1.48;0.60;;;13.60;99.90;;;;;;7406919;19;19929;-73
2023/06/01 13:03:51;;;;;;;1.58;0.40;;;13.60;99.90;;;;;;7404628;19;20530;-73
2023/06/01 13:06:21;;;;;;;0.98;0.50;;;13.60;99.90;;;;;;7406180;19;19939;-74
2023/06/01 13:08:52;;;;;;;1.58;0.60;;;13.60;99.90;;;;;;7405899;19;19923;-73
2023/06/01 13:11:22;;;;;;;1.77;0.65;;;13.80;99.90;;;;;;7404124;19;19923;-73